sensor_id;sensor_type;location;lat;lon;timestamp;P1;durP1;ratioP1;P2;durP2;ratioP2
45692;SDS011;31402;44.752;-0.374;2023-02-01T00:02:17;7.47;;;2.87;;
45692;SDS011;31402;44.752;-0.374;2023-02-01T00:04:42;7.67;;;2.63;;
45692;SDS011;31402;44.752;-0.374;2023-02-01T00:07:08;6.77;;;2.50;;
45692;SDS011;31402;44.752;-0.374;2023-02-01T00:09:34;6.13;;;2.27;;
45692;SDS011;31402;44.752;-0.374;2023-02-01T00:12:00;6.53;;;2.17;;
45692;SDS011;31402;44.752;-0.374;2023-02-01T00:14:27;7.30;;;2.53;;
45692;SDS011;31402;44.752;-0.374;2023-02-01T00:16:53;6.40;;;2.37;;
45692;SDS011;31402;44.752;-0.374;2023-02-01T00:19:19;6.23;;;2.20;;
45692;SDS011;31402;44.752;-0.374;2023-02-01T00:21:45;6.63;;;2.40;;
45692;SDS011;31402;44.752;-0.374;2023-02-01T00:24:11;7.53;;;2.50;;
45692;SDS011;31402;44.752;-0.374;2023-02-01T00:26:39;10.60;;;3.00;;
45692;SDS011;31402;44.752;-0.374;2023-02-01T00:29:09;8.80;;;2.70;;
45692;SDS011;31402;44.752;-0.374;2023-02-01T00:31:39;6.87;;;2.20;;
45692;SDS011;31402;44.752;-0.374;2023-02-01T00:34:04;8.77;;;2.60;;
45692;SDS011;31402;44.752;-0.374;2023-02-01T00:36:30;9.27;;;2.67;;
45692;SDS011;31402;44.752;-0.374;2023-02-01T00:38:56;8.67;;;2.90;;
45692;SDS011;31402;44.752;-0.374;2023-02-01T00:41:22;10.70;;;2.73;;
45692;SDS011;31402;44.752;-0.374;2023-02-01T00:43:48;9.87;;;2.20;;
45692;SDS011;31402;44.752;-0.374;2023-02-01T00:46:16;7.53;;;2.30;;
45692;SDS011;31402;44.752;-0.374;2023-02-01T00:48:43;7.87;;;2.37;;
45692;SDS011;31402;44.752;-0.374;2023-02-01T00:51:11;9.23;;;2.53;;
45692;SDS011;31402;44.752;-0.374;2023-02-01T00:53:39;10.30;;;2.63;;
45692;SDS011;31402;44.752;-0.374;2023-02-01T00:56:05;6.90;;;2.33;;
45692;SDS011;31402;44.752;-0.374;2023-02-01T00:58:32;8.23;;;2.70;;
45692;SDS011;31402;44.752;-0.374;2023-02-01T01:03:32;9.43;;;2.50;;
45692;SDS011;31402;44.752;-0.374;2023-02-01T01:06:00;8.87;;;2.60;;
45692;SDS011;31402;44.752;-0.374;2023-02-01T01:08:27;11.03;;;3.10;;
45692;SDS011;31402;44.752;-0.374;2023-02-01T01:10:53;8.57;;;3.03;;
45692;SDS011;31402;44.752;-0.374;2023-02-01T01:13:19;8.20;;;2.77;;
45692;SDS011;31402;44.752;-0.374;2023-02-01T01:15:45;7.73;;;2.20;;
45692;SDS011;31402;44.752;-0.374;2023-02-01T01:18:10;9.43;;;2.50;;
45692;SDS011;31402;44.752;-0.374;2023-02-01T01:20:38;7.00;;;2.70;;
45692;SDS011;31402;44.752;-0.374;2023-02-01T01:23:06;6.10;;;2.67;;
45692;SDS011;31402;44.752;-0.374;2023-02-01T01:25:36;12.00;;;3.13;;
45692;SDS011;31402;44.752;-0.374;2023-02-01T01:28:03;9.67;;;2.70;;
45692;SDS011;31402;44.752;-0.374;2023-02-01T01:30:29;8.30;;;2.83;;
45692;SDS011;31402;44.752;-0.374;2023-02-01T01:32:55;9.43;;;2.90;;
45692;SDS011;31402;44.752;-0.374;2023-02-01T01:35:20;9.93;;;3.20;;
45692;SDS011;31402;44.752;-0.374;2023-02-01T01:37:46;8.97;;;3.50;;
45692;SDS011;31402;44.752;-0.374;2023-02-01T01:40:12;10.07;;;2.57;;
45692;SDS011;31402;44.752;-0.374;2023-02-01T01:42:39;7.53;;;2.80;;
45692;SDS011;31402;44.752;-0.374;2023-02-01T01:45:07;8.97;;;3.20;;
45692;SDS011;31402;44.752;-0.374;2023-02-01T01:48:05;6.80;;;2.50;;
45692;SDS011;31402;44.752;-0.374;2023-02-01T01:50:41;20.43;;;7.70;;
45692;SDS011;31402;44.752;-0.374;2023-02-01T01:53:16;10.93;;;6.20;;
45692;SDS011;31402;44.752;-0.374;2023-02-01T01:55:45;13.13;;;6.43;;
45692;SDS011;31402;44.752;-0.374;2023-02-01T01:58:14;12.20;;;7.70;;
45692;SDS011;31402;44.752;-0.374;2023-02-01T02:00:46;11.27;;;5.17;;
45692;SDS011;31402;44.752;-0.374;2023-02-01T02:05:45;7.83;;;2.80;;
45692;SDS011;31402;44.752;-0.374;2023-02-01T02:08:13;7.23;;;2.83;;
45692;SDS011;31402;44.752;-0.374;2023-02-01T02:10:39;9.13;;;2.97;;
45692;SDS011;31402;44.752;-0.374;2023-02-01T02:13:23;8.73;;;2.97;;
45692;SDS011;31402;44.752;-0.374;2023-02-01T02:15:59;12.40;;;2.30;;
45692;SDS011;31402;44.752;-0.374;2023-02-01T02:19:38;15.53;;;6.77;;
45692;SDS011;31402;44.752;-0.374;2023-02-01T02:24:58;7.27;;;2.87;;
45692;SDS011;31402;44.752;-0.374;2023-02-01T02:33:26;9.90;;;3.10;;
45692;SDS011;31402;44.752;-0.374;2023-02-01T02:36:13;8.13;;;3.27;;
45692;SDS011;31402;44.752;-0.374;2023-02-01T02:39:16;9.80;;;3.13;;
45692;SDS011;31402;44.752;-0.374;2023-02-01T02:47:45;9.77;;;3.13;;
45692;SDS011;31402;44.752;-0.374;2023-02-01T02:50:19;7.23;;;2.70;;
45692;SDS011;31402;44.752;-0.374;2023-02-01T02:53:18;10.43;;;2.90;;
45692;SDS011;31402;44.752;-0.374;2023-02-01T02:56:08;6.83;;;2.87;;
45692;SDS011;31402;44.752;-0.374;2023-02-01T02:58:55;9.27;;;3.07;;
45692;SDS011;31402;44.752;-0.374;2023-02-01T03:01:41;8.13;;;3.47;;
45692;SDS011;31402;44.752;-0.374;2023-02-01T03:04:26;5.80;;;3.07;;
45692;SDS011;31402;44.752;-0.374;2023-02-01T03:06:52;13.30;;;3.53;;
45692;SDS011;31402;44.752;-0.374;2023-02-01T03:09:21;12.97;;;4.27;;
45692;SDS011;31402;44.752;-0.374;2023-02-01T03:11:52;10.97;;;3.67;;
45692;SDS011;31402;44.752;-0.374;2023-02-01T03:14:42;12.50;;;4.30;;
45692;SDS011;31402;44.752;-0.374;2023-02-01T03:17:12;10.20;;;4.23;;
45692;SDS011;31402;44.752;-0.374;2023-02-01T03:19:42;10.27;;;4.03;;
45692;SDS011;31402;44.752;-0.374;2023-02-01T03:22:14;12.67;;;4.20;;
45692;SDS011;31402;44.752;-0.374;2023-02-01T03:24:54;11.93;;;4.10;;
45692;SDS011;31402;44.752;-0.374;2023-02-01T03:27:45;9.20;;;3.43;;
45692;SDS011;31402;44.752;-0.374;2023-02-01T03:30:21;7.27;;;3.03;;
45692;SDS011;31402;44.752;-0.374;2023-02-01T03:32:53;11.93;;;3.77;;
45692;SDS011;31402;44.752;-0.374;2023-02-01T03:38:32;6.83;;;3.10;;
45692;SDS011;31402;44.752;-0.374;2023-02-01T03:43:37;7.53;;;3.30;;
45692;SDS011;31402;44.752;-0.374;2023-02-01T03:46:11;3.97;;;2.93;;
45692;SDS011;31402;44.752;-0.374;2023-02-01T03:48:42;7.20;;;3.00;;
45692;SDS011;31402;44.752;-0.374;2023-02-01T03:51:09;5.60;;;2.80;;
45692;SDS011;31402;44.752;-0.374;2023-02-01T03:53:36;6.47;;;2.60;;
45692;SDS011;31402;44.752;-0.374;2023-02-01T03:56:03;5.50;;;3.00;;
45692;SDS011;31402;44.752;-0.374;2023-02-01T03:58:30;7.60;;;3.23;;
45692;SDS011;31402;44.752;-0.374;2023-02-01T04:00:57;8.80;;;3.10;;
45692;SDS011;31402;44.752;-0.374;2023-02-01T04:03:24;7.30;;;2.90;;
45692;SDS011;31402;44.752;-0.374;2023-02-01T04:05:51;10.23;;;3.50;;
45692;SDS011;31402;44.752;-0.374;2023-02-01T04:08:18;7.93;;;3.43;;
45692;SDS011;31402;44.752;-0.374;2023-02-01T04:10:44;8.13;;;3.33;;
45692;SDS011;31402;44.752;-0.374;2023-02-01T04:13:10;8.67;;;3.37;;
45692;SDS011;31402;44.752;-0.374;2023-02-01T04:15:37;7.67;;;3.00;;
45692;SDS011;31402;44.752;-0.374;2023-02-01T04:18:02;6.63;;;2.97;;
45692;SDS011;31402;44.752;-0.374;2023-02-01T04:20:28;6.53;;;3.20;;
45692;SDS011;31402;44.752;-0.374;2023-02-01T04:22:54;8.83;;;3.43;;
45692;SDS011;31402;44.752;-0.374;2023-02-01T04:25:20;9.83;;;4.10;;
45692;SDS011;31402;44.752;-0.374;2023-02-01T04:27:46;5.47;;;2.63;;
45692;SDS011;31402;44.752;-0.374;2023-02-01T04:30:12;6.83;;;3.03;;
45692;SDS011;31402;44.752;-0.374;2023-02-01T04:32:38;9.40;;;3.50;;
45692;SDS011;31402;44.752;-0.374;2023-02-01T04:35:05;9.50;;;4.03;;
45692;SDS011;31402;44.752;-0.374;2023-02-01T04:37:32;9.20;;;3.17;;
45692;SDS011;31402;44.752;-0.374;2023-02-01T04:39:58;7.37;;;3.20;;
45692;SDS011;31402;44.752;-0.374;2023-02-01T04:42:23;9.47;;;3.30;;
45692;SDS011;31402;44.752;-0.374;2023-02-01T04:44:50;11.03;;;3.20;;
45692;SDS011;31402;44.752;-0.374;2023-02-01T04:47:15;9.07;;;3.17;;
45692;SDS011;31402;44.752;-0.374;2023-02-01T04:49:41;7.63;;;3.60;;
45692;SDS011;31402;44.752;-0.374;2023-02-01T04:52:07;5.90;;;3.30;;
45692;SDS011;31402;44.752;-0.374;2023-02-01T04:54:33;11.20;;;4.00;;
45692;SDS011;31402;44.752;-0.374;2023-02-01T04:56:59;7.40;;;3.10;;
45692;SDS011;31402;44.752;-0.374;2023-02-01T04:59:25;7.60;;;3.40;;
45692;SDS011;31402;44.752;-0.374;2023-02-01T05:01:51;8.63;;;3.40;;
45692;SDS011;31402;44.752;-0.374;2023-02-01T05:04:17;8.00;;;4.00;;
45692;SDS011;31402;44.752;-0.374;2023-02-01T05:06:43;12.07;;;4.70;;
45692;SDS011;31402;44.752;-0.374;2023-02-01T05:09:10;15.43;;;5.17;;
45692;SDS011;31402;44.752;-0.374;2023-02-01T05:11:36;10.30;;;3.63;;
45692;SDS011;31402;44.752;-0.374;2023-02-01T05:14:20;12.57;;;4.60;;
45692;SDS011;31402;44.752;-0.374;2023-02-01T05:16:46;11.57;;;4.10;;
45692;SDS011;31402;44.752;-0.374;2023-02-01T05:19:12;10.70;;;4.30;;
45692;SDS011;31402;44.752;-0.374;2023-02-01T05:21:38;13.10;;;4.00;;
45692;SDS011;31402;44.752;-0.374;2023-02-01T05:24:03;11.73;;;4.70;;
45692;SDS011;31402;44.752;-0.374;2023-02-01T05:26:38;9.83;;;4.40;;
45692;SDS011;31402;44.752;-0.374;2023-02-01T05:29:07;26.13;;;4.93;;
45692;SDS011;31402;44.752;-0.374;2023-02-01T05:31:34;10.33;;;4.23;;
45692;SDS011;31402;44.752;-0.374;2023-02-01T05:34:00;13.17;;;4.97;;
45692;SDS011;31402;44.752;-0.374;2023-02-01T05:36:26;12.83;;;4.53;;
45692;SDS011;31402;44.752;-0.374;2023-02-01T05:38:52;12.07;;;4.37;;
45692;SDS011;31402;44.752;-0.374;2023-02-01T05:41:18;11.73;;;4.73;;
45692;SDS011;31402;44.752;-0.374;2023-02-01T05:43:44;11.07;;;4.20;;
45692;SDS011;31402;44.752;-0.374;2023-02-01T05:46:09;11.17;;;3.60;;
45692;SDS011;31402;44.752;-0.374;2023-02-01T05:48:37;9.27;;;3.90;;
45692;SDS011;31402;44.752;-0.374;2023-02-01T05:51:04;14.43;;;4.50;;
45692;SDS011;31402;44.752;-0.374;2023-02-01T05:53:30;12.03;;;4.27;;
45692;SDS011;31402;44.752;-0.374;2023-02-01T05:55:55;6.83;;;3.47;;
45692;SDS011;31402;44.752;-0.374;2023-02-01T05:58:21;11.23;;;4.10;;
45692;SDS011;31402;44.752;-0.374;2023-02-01T06:00:47;14.30;;;5.37;;
45692;SDS011;31402;44.752;-0.374;2023-02-01T06:03:13;13.20;;;4.63;;
45692;SDS011;31402;44.752;-0.374;2023-02-01T06:05:38;14.40;;;4.60;;
45692;SDS011;31402;44.752;-0.374;2023-02-01T06:08:04;13.57;;;4.67;;
45692;SDS011;31402;44.752;-0.374;2023-02-01T06:10:32;16.83;;;5.17;;
45692;SDS011;31402;44.752;-0.374;2023-02-01T06:12:58;15.97;;;5.57;;
45692;SDS011;31402;44.752;-0.374;2023-02-01T06:15:24;11.17;;;4.33;;
45692;SDS011;31402;44.752;-0.374;2023-02-01T06:17:50;11.43;;;4.40;;
45692;SDS011;31402;44.752;-0.374;2023-02-01T06:20:15;10.83;;;4.83;;
45692;SDS011;31402;44.752;-0.374;2023-02-01T06:22:42;13.43;;;4.53;;
45692;SDS011;31402;44.752;-0.374;2023-02-01T06:25:08;12.97;;;4.90;;
45692;SDS011;31402;44.752;-0.374;2023-02-01T06:27:35;9.17;;;4.33;;
45692;SDS011;31402;44.752;-0.374;2023-02-01T06:30:02;11.13;;;4.60;;
45692;SDS011;31402;44.752;-0.374;2023-02-01T06:32:29;11.57;;;4.63;;
45692;SDS011;31402;44.752;-0.374;2023-02-01T06:34:55;13.73;;;4.60;;
45692;SDS011;31402;44.752;-0.374;2023-02-01T06:37:22;11.10;;;4.70;;
45692;SDS011;31402;44.752;-0.374;2023-02-01T06:39:49;12.50;;;4.33;;
45692;SDS011;31402;44.752;-0.374;2023-02-01T06:42:15;11.97;;;4.73;;
45692;SDS011;31402;44.752;-0.374;2023-02-01T06:44:41;11.63;;;4.30;;
45692;SDS011;31402;44.752;-0.374;2023-02-01T06:47:07;12.70;;;4.63;;
45692;SDS011;31402;44.752;-0.374;2023-02-01T06:49:33;10.10;;;4.63;;
45692;SDS011;31402;44.752;-0.374;2023-02-01T06:51:58;15.77;;;5.00;;
45692;SDS011;31402;44.752;-0.374;2023-02-01T06:54:27;11.37;;;4.90;;
45692;SDS011;31402;44.752;-0.374;2023-02-01T06:56:54;13.97;;;5.87;;
45692;SDS011;31402;44.752;-0.374;2023-02-01T06:59:20;13.30;;;5.00;;
45692;SDS011;31402;44.752;-0.374;2023-02-01T07:01:46;13.10;;;5.10;;
45692;SDS011;31402;44.752;-0.374;2023-02-01T07:04:11;10.67;;;4.97;;
45692;SDS011;31402;44.752;-0.374;2023-02-01T07:06:38;11.70;;;4.83;;
45692;SDS011;31402;44.752;-0.374;2023-02-01T07:09:04;12.13;;;4.77;;
45692;SDS011;31402;44.752;-0.374;2023-02-01T07:11:30;13.50;;;5.17;;
45692;SDS011;31402;44.752;-0.374;2023-02-01T07:13:57;10.57;;;4.80;;
45692;SDS011;31402;44.752;-0.374;2023-02-01T07:16:22;11.17;;;5.03;;
45692;SDS011;31402;44.752;-0.374;2023-02-01T07:18:49;15.10;;;4.97;;
45692;SDS011;31402;44.752;-0.374;2023-02-01T07:21:16;10.67;;;4.93;;
45692;SDS011;31402;44.752;-0.374;2023-02-01T07:23:42;14.50;;;4.80;;
45692;SDS011;31402;44.752;-0.374;2023-02-01T07:26:09;14.03;;;6.73;;
45692;SDS011;31402;44.752;-0.374;2023-02-01T07:28:38;12.10;;;4.70;;
45692;SDS011;31402;44.752;-0.374;2023-02-01T07:31:08;12.30;;;5.50;;
45692;SDS011;31402;44.752;-0.374;2023-02-01T07:33:35;16.77;;;5.67;;
45692;SDS011;31402;44.752;-0.374;2023-02-01T07:36:03;13.63;;;5.30;;
45692;SDS011;31402;44.752;-0.374;2023-02-01T07:38:29;13.07;;;5.63;;
45692;SDS011;31402;44.752;-0.374;2023-02-01T07:40:59;11.63;;;5.20;;
45692;SDS011;31402;44.752;-0.374;2023-02-01T07:43:29;12.63;;;4.73;;
45692;SDS011;31402;44.752;-0.374;2023-02-01T07:45:56;18.63;;;6.37;;
45692;SDS011;31402;44.752;-0.374;2023-02-01T07:48:22;16.03;;;5.70;;
45692;SDS011;31402;44.752;-0.374;2023-02-01T07:50:56;12.80;;;5.53;;
45692;SDS011;31402;44.752;-0.374;2023-02-01T07:53:23;12.87;;;5.70;;
45692;SDS011;31402;44.752;-0.374;2023-02-01T07:55:49;14.17;;;5.33;;
45692;SDS011;31402;44.752;-0.374;2023-02-01T07:58:15;47.00;;;24.10;;
45692;SDS011;31402;44.752;-0.374;2023-02-01T08:00:40;20.23;;;9.73;;
45692;SDS011;31402;44.752;-0.374;2023-02-01T08:03:24;12.17;;;5.40;;
45692;SDS011;31402;44.752;-0.374;2023-02-01T08:05:53;14.03;;;5.80;;
45692;SDS011;31402;44.752;-0.374;2023-02-01T08:08:20;16.13;;;5.40;;
45692;SDS011;31402;44.752;-0.374;2023-02-01T08:10:46;16.57;;;8.53;;
45692;SDS011;31402;44.752;-0.374;2023-02-01T08:13:12;13.93;;;5.43;;
45692;SDS011;31402;44.752;-0.374;2023-02-01T08:15:38;11.03;;;5.10;;
45692;SDS011;31402;44.752;-0.374;2023-02-01T08:18:04;19.13;;;9.93;;
45692;SDS011;31402;44.752;-0.374;2023-02-01T08:20:30;19.97;;;8.77;;
45692;SDS011;31402;44.752;-0.374;2023-02-01T08:22:56;47.40;;;31.73;;
45692;SDS011;31402;44.752;-0.374;2023-02-01T08:25:22;30.00;;;19.70;;
45692;SDS011;31402;44.752;-0.374;2023-02-01T08:27:48;26.47;;;17.30;;
45692;SDS011;31402;44.752;-0.374;2023-02-01T08:30:15;24.90;;;15.50;;
45692;SDS011;31402;44.752;-0.374;2023-02-01T08:32:41;12.63;;;5.73;;
45692;SDS011;31402;44.752;-0.374;2023-02-01T08:35:07;14.53;;;5.43;;
45692;SDS011;31402;44.752;-0.374;2023-02-01T08:37:33;11.77;;;6.53;;
45692;SDS011;31402;44.752;-0.374;2023-02-01T08:39:59;14.43;;;6.07;;
45692;SDS011;31402;44.752;-0.374;2023-02-01T08:42:24;12.30;;;5.80;;
45692;SDS011;31402;44.752;-0.374;2023-02-01T08:45:09;12.00;;;5.90;;
45692;SDS011;31402;44.752;-0.374;2023-02-01T08:47:35;14.53;;;5.80;;
45692;SDS011;31402;44.752;-0.374;2023-02-01T08:50:01;11.97;;;5.43;;
45692;SDS011;31402;44.752;-0.374;2023-02-01T08:52:27;13.10;;;6.50;;
45692;SDS011;31402;44.752;-0.374;2023-02-01T08:54:53;19.77;;;8.57;;
45692;SDS011;31402;44.752;-0.374;2023-02-01T08:57:18;15.10;;;5.30;;
45692;SDS011;31402;44.752;-0.374;2023-02-01T08:59:44;11.43;;;5.10;;
45692;SDS011;31402;44.752;-0.374;2023-02-01T09:02:13;16.07;;;5.53;;
45692;SDS011;31402;44.752;-0.374;2023-02-01T09:04:40;14.80;;;4.97;;
45692;SDS011;31402;44.752;-0.374;2023-02-01T09:07:06;16.33;;;4.90;;
45692;SDS011;31402;44.752;-0.374;2023-02-01T09:09:36;14.83;;;5.10;;
45692;SDS011;31402;44.752;-0.374;2023-02-01T09:12:02;15.50;;;5.07;;
45692;SDS011;31402;44.752;-0.374;2023-02-01T09:14:28;14.93;;;4.90;;
45692;SDS011;31402;44.752;-0.374;2023-02-01T09:16:54;19.50;;;8.43;;
45692;SDS011;31402;44.752;-0.374;2023-02-01T09:19:20;18.40;;;5.63;;
45692;SDS011;31402;44.752;-0.374;2023-02-01T09:21:46;12.17;;;4.83;;
45692;SDS011;31402;44.752;-0.374;2023-02-01T09:24:12;15.40;;;4.70;;
45692;SDS011;31402;44.752;-0.374;2023-02-01T09:26:38;11.80;;;4.13;;
45692;SDS011;31402;44.752;-0.374;2023-02-01T09:29:04;15.33;;;4.90;;
45692;SDS011;31402;44.752;-0.374;2023-02-01T09:31:35;11.37;;;3.90;;
45692;SDS011;31402;44.752;-0.374;2023-02-01T09:34:01;11.53;;;4.07;;
45692;SDS011;31402;44.752;-0.374;2023-02-01T09:36:27;15.43;;;4.27;;
45692;SDS011;31402;44.752;-0.374;2023-02-01T09:38:53;12.30;;;4.60;;
45692;SDS011;31402;44.752;-0.374;2023-02-01T09:46:57;16.33;;;4.13;;
45692;SDS011;31402;44.752;-0.374;2023-02-01T09:49:34;14.03;;;3.50;;
45692;SDS011;31402;44.752;-0.374;2023-02-01T09:52:07;11.07;;;3.50;;
45692;SDS011;31402;44.752;-0.374;2023-02-01T09:54:47;11.67;;;3.33;;
45692;SDS011;31402;44.752;-0.374;2023-02-01T09:59:59;11.77;;;3.43;;
45692;SDS011;31402;44.752;-0.374;2023-02-01T10:02:29;12.97;;;3.23;;
45692;SDS011;31402;44.752;-0.374;2023-02-01T10:04:56;10.30;;;3.90;;
45692;SDS011;31402;44.752;-0.374;2023-02-01T10:10:16;13.07;;;3.10;;
45692;SDS011;31402;44.752;-0.374;2023-02-01T10:13:05;12.57;;;3.40;;
45692;SDS011;31402;44.752;-0.374;2023-02-01T10:18:35;10.10;;;2.87;;
45692;SDS011;31402;44.752;-0.374;2023-02-01T10:21:09;9.00;;;2.77;;
45692;SDS011;31402;44.752;-0.374;2023-02-01T10:26:25;10.23;;;3.17;;
45692;SDS011;31402;44.752;-0.374;2023-02-01T10:29:01;12.53;;;2.83;;
45692;SDS011;31402;44.752;-0.374;2023-02-01T10:31:29;9.33;;;2.87;;
45692;SDS011;31402;44.752;-0.374;2023-02-01T10:33:59;12.37;;;2.90;;
45692;SDS011;31402;44.752;-0.374;2023-02-01T10:36:32;11.33;;;3.30;;
45692;SDS011;31402;44.752;-0.374;2023-02-01T10:39:02;13.00;;;3.17;;
45692;SDS011;31402;44.752;-0.374;2023-02-01T10:41:38;14.50;;;3.17;;
45692;SDS011;31402;44.752;-0.374;2023-02-01T10:44:27;9.30;;;3.43;;
45692;SDS011;31402;44.752;-0.374;2023-02-01T10:46:53;15.70;;;4.23;;
45692;SDS011;31402;44.752;-0.374;2023-02-01T10:49:22;15.03;;;3.77;;
45692;SDS011;31402;44.752;-0.374;2023-02-01T10:51:58;13.13;;;3.13;;
45692;SDS011;31402;44.752;-0.374;2023-02-01T10:54:32;11.20;;;3.13;;
45692;SDS011;31402;44.752;-0.374;2023-02-01T10:57:00;13.07;;;3.73;;
45692;SDS011;31402;44.752;-0.374;2023-02-01T10:59:28;12.67;;;3.30;;
45692;SDS011;31402;44.752;-0.374;2023-02-01T11:01:59;16.47;;;3.57;;
45692;SDS011;31402;44.752;-0.374;2023-02-01T11:04:27;13.43;;;3.13;;
45692;SDS011;31402;44.752;-0.374;2023-02-01T11:07:12;14.67;;;3.57;;
45692;SDS011;31402;44.752;-0.374;2023-02-01T11:09:51;11.73;;;2.80;;
45692;SDS011;31402;44.752;-0.374;2023-02-01T11:12:36;11.40;;;2.63;;
45692;SDS011;31402;44.752;-0.374;2023-02-01T11:17:46;14.03;;;2.80;;
45692;SDS011;31402;44.752;-0.374;2023-02-01T11:20:17;11.23;;;2.70;;
45692;SDS011;31402;44.752;-0.374;2023-02-01T11:22:48;10.23;;;2.60;;
45692;SDS011;31402;44.752;-0.374;2023-02-01T11:25:19;8.40;;;2.27;;
45692;SDS011;31402;44.752;-0.374;2023-02-01T11:27:46;14.47;;;2.40;;
45692;SDS011;31402;44.752;-0.374;2023-02-01T11:30:17;11.03;;;2.40;;
45692;SDS011;31402;44.752;-0.374;2023-02-01T11:33:04;13.30;;;2.40;;
45692;SDS011;31402;44.752;-0.374;2023-02-01T11:35:31;10.27;;;2.30;;
45692;SDS011;31402;44.752;-0.374;2023-02-01T11:37:58;9.23;;;2.30;;
45692;SDS011;31402;44.752;-0.374;2023-02-01T11:40:27;10.73;;;2.40;;
45692;SDS011;31402;44.752;-0.374;2023-02-01T11:43:13;10.77;;;2.60;;
45692;SDS011;31402;44.752;-0.374;2023-02-01T11:45:53;14.13;;;2.73;;
45692;SDS011;31402;44.752;-0.374;2023-02-01T11:48:30;12.00;;;2.47;;
45692;SDS011;31402;44.752;-0.374;2023-02-01T12:07:12;24.80;;;7.97;;
45692;SDS011;31402;44.752;-0.374;2023-02-01T12:12:34;58.93;;;17.13;;
45692;SDS011;31402;44.752;-0.374;2023-02-01T12:23:33;11.87;;;2.57;;
45692;SDS011;31402;44.752;-0.374;2023-02-01T12:37:20;8.20;;;1.93;;
45692;SDS011;31402;44.752;-0.374;2023-02-01T12:46:16;5.63;;;1.90;;
45692;SDS011;31402;44.752;-0.374;2023-02-01T12:48:52;7.60;;;1.83;;
45692;SDS011;31402;44.752;-0.374;2023-02-01T12:51:29;6.80;;;1.70;;
45692;SDS011;31402;44.752;-0.374;2023-02-01T12:56:53;8.27;;;1.93;;
45692;SDS011;31402;44.752;-0.374;2023-02-01T12:59:42;7.57;;;1.97;;
45692;SDS011;31402;44.752;-0.374;2023-02-01T13:02:33;5.40;;;1.30;;
45692;SDS011;31402;44.752;-0.374;2023-02-01T13:05:16;5.67;;;1.50;;
45692;SDS011;31402;44.752;-0.374;2023-02-01T13:07:49;6.83;;;2.00;;
45692;SDS011;31402;44.752;-0.374;2023-02-01T13:10:50;7.80;;;1.83;;
45692;SDS011;31402;44.752;-0.374;2023-02-01T13:16:32;4.60;;;1.60;;
45692;SDS011;31402;44.752;-0.374;2023-02-01T13:19:05;5.00;;;2.07;;
45692;SDS011;31402;44.752;-0.374;2023-02-01T13:21:45;7.90;;;1.70;;
45692;SDS011;31402;44.752;-0.374;2023-02-01T13:27:00;7.73;;;2.40;;
45692;SDS011;31402;44.752;-0.374;2023-02-01T13:29:26;4.63;;;1.97;;
45692;SDS011;31402;44.752;-0.374;2023-02-01T13:37:36;7.30;;;2.40;;
45692;SDS011;31402;44.752;-0.374;2023-02-01T13:43:05;5.83;;;1.90;;
45692;SDS011;31402;44.752;-0.374;2023-02-01T13:45:41;4.97;;;1.97;;
45692;SDS011;31402;44.752;-0.374;2023-02-01T13:51:12;7.17;;;2.63;;
45692;SDS011;31402;44.752;-0.374;2023-02-01T13:53:43;5.53;;;1.90;;
45692;SDS011;31402;44.752;-0.374;2023-02-01T13:56:15;1.57;;;0.83;;
45692;SDS011;31402;44.752;-0.374;2023-02-01T13:58:43;4.30;;;1.50;;
45692;SDS011;31402;44.752;-0.374;2023-02-01T14:03:46;5.20;;;1.47;;
45692;SDS011;31402;44.752;-0.374;2023-02-01T14:11:52;3.17;;;1.50;;
45692;SDS011;31402;44.752;-0.374;2023-02-01T14:21:50;4.93;;;1.40;;
45692;SDS011;31402;44.752;-0.374;2023-02-01T14:24:26;4.23;;;1.03;;
45692;SDS011;31402;44.752;-0.374;2023-02-01T14:26:57;3.30;;;1.00;;
45692;SDS011;31402;44.752;-0.374;2023-02-01T14:29:32;2.67;;;1.00;;
45692;SDS011;31402;44.752;-0.374;2023-02-01T14:37:21;2.60;;;1.10;;
45692;SDS011;31402;44.752;-0.374;2023-02-01T14:39:56;3.13;;;1.00;;
45692;SDS011;31402;44.752;-0.374;2023-02-01T14:42:38;4.17;;;1.50;;
45692;SDS011;31402;44.752;-0.374;2023-02-01T14:47:48;3.27;;;1.30;;
45692;SDS011;31402;44.752;-0.374;2023-02-01T14:58:35;4.50;;;1.70;;
45692;SDS011;31402;44.752;-0.374;2023-02-01T15:01:18;4.47;;;1.40;;
45692;SDS011;31402;44.752;-0.374;2023-02-01T15:06:30;4.70;;;1.20;;
45692;SDS011;31402;44.752;-0.374;2023-02-01T15:09:07;4.37;;;0.90;;
45692;SDS011;31402;44.752;-0.374;2023-02-01T15:12:03;2.03;;;0.67;;
45692;SDS011;31402;44.752;-0.374;2023-02-01T15:14:30;3.33;;;0.83;;
45692;SDS011;31402;44.752;-0.374;2023-02-01T15:17:01;1.87;;;0.60;;
45692;SDS011;31402;44.752;-0.374;2023-02-01T15:19:28;3.07;;;2.10;;
45692;SDS011;31402;44.752;-0.374;2023-02-01T15:21:56;4.00;;;1.90;;
45692;SDS011;31402;44.752;-0.374;2023-02-01T15:24:27;4.27;;;3.87;;
45692;SDS011;31402;44.752;-0.374;2023-02-01T15:26:55;3.83;;;1.60;;
45692;SDS011;31402;44.752;-0.374;2023-02-01T15:29:26;2.30;;;1.40;;
45692;SDS011;31402;44.752;-0.374;2023-02-01T15:31:57;5.87;;;1.67;;
45692;SDS011;31402;44.752;-0.374;2023-02-01T15:34:23;5.40;;;3.73;;
45692;SDS011;31402;44.752;-0.374;2023-02-01T15:37:11;4.63;;;2.30;;
45692;SDS011;31402;44.752;-0.374;2023-02-01T15:40:02;1.50;;;1.10;;
45692;SDS011;31402;44.752;-0.374;2023-02-01T15:42:38;1.30;;;0.50;;
45692;SDS011;31402;44.752;-0.374;2023-02-01T15:45:21;1.57;;;0.50;;
45692;SDS011;31402;44.752;-0.374;2023-02-01T15:47:51;3.27;;;1.70;;
45692;SDS011;31402;44.752;-0.374;2023-02-01T15:50:19;5.13;;;1.90;;
45692;SDS011;31402;44.752;-0.374;2023-02-01T15:52:49;3.10;;;1.40;;
45692;SDS011;31402;44.752;-0.374;2023-02-01T15:55:22;2.93;;;0.90;;
45692;SDS011;31402;44.752;-0.374;2023-02-01T15:57:58;1.73;;;0.70;;
45692;SDS011;31402;44.752;-0.374;2023-02-01T16:00:25;3.70;;;0.77;;
45692;SDS011;31402;44.752;-0.374;2023-02-01T16:03:01;2.53;;;0.80;;
45692;SDS011;31402;44.752;-0.374;2023-02-01T16:10:40;2.63;;;0.93;;
45692;SDS011;31402;44.752;-0.374;2023-02-01T16:13:08;3.03;;;1.07;;
45692;SDS011;31402;44.752;-0.374;2023-02-01T16:15:34;2.57;;;1.20;;
45692;SDS011;31402;44.752;-0.374;2023-02-01T16:18:00;4.23;;;1.30;;
45692;SDS011;31402;44.752;-0.374;2023-02-01T16:20:26;3.43;;;1.17;;
45692;SDS011;31402;44.752;-0.374;2023-02-01T16:22:52;4.43;;;1.30;;
45692;SDS011;31402;44.752;-0.374;2023-02-01T16:25:18;2.70;;;1.20;;
45692;SDS011;31402;44.752;-0.374;2023-02-01T16:27:44;2.10;;;1.10;;
45692;SDS011;31402;44.752;-0.374;2023-02-01T16:30:10;2.90;;;1.03;;
45692;SDS011;31402;44.752;-0.374;2023-02-01T16:32:36;2.20;;;0.90;;
45692;SDS011;31402;44.752;-0.374;2023-02-01T16:35:19;2.50;;;1.00;;
45692;SDS011;31402;44.752;-0.374;2023-02-01T16:37:48;5.00;;;1.30;;
45692;SDS011;31402;44.752;-0.374;2023-02-01T16:40:15;3.27;;;1.00;;
45692;SDS011;31402;44.752;-0.374;2023-02-01T16:42:42;3.13;;;1.10;;
45692;SDS011;31402;44.752;-0.374;2023-02-01T16:45:08;5.77;;;1.20;;
45692;SDS011;31402;44.752;-0.374;2023-02-01T16:47:36;4.63;;;1.17;;
45692;SDS011;31402;44.752;-0.374;2023-02-01T16:50:03;3.37;;;1.10;;
45692;SDS011;31402;44.752;-0.374;2023-02-01T16:52:39;9.30;;;3.10;;
45692;SDS011;31402;44.752;-0.374;2023-02-01T16:55:08;16.60;;;6.60;;
45692;SDS011;31402;44.752;-0.374;2023-02-01T16:57:38;6.97;;;3.03;;
45692;SDS011;31402;44.752;-0.374;2023-02-01T17:00:04;3.93;;;1.87;;
45692;SDS011;31402;44.752;-0.374;2023-02-01T17:02:31;4.70;;;1.67;;
45692;SDS011;31402;44.752;-0.374;2023-02-01T17:04:56;4.70;;;1.80;;
45692;SDS011;31402;44.752;-0.374;2023-02-01T17:07:22;5.83;;;2.00;;
45692;SDS011;31402;44.752;-0.374;2023-02-01T17:09:48;4.90;;;2.20;;
45692;SDS011;31402;44.752;-0.374;2023-02-01T17:12:24;3.97;;;1.87;;
45692;SDS011;31402;44.752;-0.374;2023-02-01T17:14:53;4.23;;;1.73;;
45692;SDS011;31402;44.752;-0.374;2023-02-01T17:17:19;5.10;;;1.70;;